M I D A S
Marine Information and Data Acquisition System
Tripno 2132 of the Zeeleeuw from 2011-01-21 07:34:33 to 2011-01-21 16:03:05
Back to CruiseResearch ActivitiesStationsMapUnderway DataData graphs

EquipmentUnitsComment
TimeDGPSUTC
LatitudeDGPSDM.mWGS84
LongitudeDGPSDM.mWGS84
HeadingGyrodeg 
SOGDGPSknotsSpeed over ground
COGDGPSdegCourse over ground
DepthEcho soundermeters200 kHz
Missing or incorrect values are displayed as -999
Navigation data collected by the RV Zeeleeuw from 2011-01-21 07:39:10 to 2011-01-21 16:03:00
                                                                                    Next 1000 lines
Time Latitude Longitude Heading SOG COG Depth
2011-01-21 07:39:19 51°13.661 2°55.958 109.1 0.9 296 5.4
2011-01-21 07:39:25 51°13.662 2°55.955 109.4 1.5 295 5.3
2011-01-21 07:39:30 51°13.663 2°55.951 109.5 1.9 294 5.5
2011-01-21 07:39:35 51°13.664 2°55.946 109.5 2.3 295 -999
2011-01-21 07:39:40 51°13.666 2°55.941 109 2.7 293 -999
2011-01-21 07:39:47 51°13.668 2°55.932 108.2 3 294 -999
2011-01-21 07:39:52 51°13.67 2°55.925 107.5 2.7 290 -999
2011-01-21 07:39:52 51°13.67 2°55.925 106.9 0.1 112 -999
2011-01-21 07:39:52 51°13.67 2°55.925 105.9 -999 110 -999
2011-01-21 07:40:08 51°13.67 2°55.897 105.1 3.2 287 -999
2011-01-21 07:40:14 51°13.673 2°55.887 104.2 4.3 286 -999
2011-01-21 07:40:19 51°13.676 2°55.878 103.4 4.2 286 -999
2011-01-21 07:40:23 51°13.678 2°55.871 102.8 4.2 285 -999
2011-01-21 07:40:28 51°13.68 2°55.861 102.2 4.2 284 -999
2011-01-21 07:40:33 51°13.682 2°55.853 101.5 4.1 284 -999
2011-01-21 07:40:39 51°13.685 2°55.843 100.7 4 284 -999
2011-01-21 07:40:43 51°13.686 2°55.836 100 3.8 283 -999
2011-01-21 07:40:48 51°13.687 2°55.828 99.2 3.7 283 -999
2011-01-21 07:40:53 51°13.688 2°55.822 98.4 3.5 283 -999
2011-01-21 07:40:59 51°13.689 2°55.813 97.4 2.9 282 -999
2011-01-21 07:41:01 51°13.689 2°55.81 96.5 1.2 282 -999
2011-01-21 07:41:01 51°13.689 2°55.81 95.4 0.1 102 -999
2011-01-21 07:41:01 51°13.689 2°55.81 94.3 -999 102 -999
2011-01-21 07:41:01 51°13.689 2°55.81 93 -999 282 -999
2011-01-21 07:41:01 51°13.689 2°55.81 91.5 -999 281 -999
2011-01-21 07:41:28 51°13.692 2°55.774 90.1 2.8 275 -999
2011-01-21 07:41:34 51°13.692 2°55.765 88.5 3 275 -999
2011-01-21 07:41:38 51°13.693 2°55.76 87 2.7 275 -999
2011-01-21 07:41:43 51°13.694 2°55.755 85.7 2.3 274 -999
2011-01-21 07:41:48 51°13.694 2°55.75 83.8 1.8 273 -999
2011-01-21 07:41:54 51°13.694 2°55.746 81.8 1.6 274 -999
2011-01-21 07:41:59 51°13.694 2°55.743 78.5 1.3 271 -999
2011-01-21 07:42:03 51°13.695 2°55.742 75.9 1.2 274 -999
2011-01-21 07:42:08 51°13.695 2°55.739 74 1.1 271 -999
2011-01-21 07:42:14 51°13.695 2°55.737 72 1 272 -999
2011-01-21 07:42:19 51°13.695 2°55.736 70.7 0.8 272 -999
2011-01-21 07:42:23 51°13.695 2°55.734 69.4 0.7 275 -999
2011-01-21 07:42:28 51°13.695 2°55.733 68.2 0.6 273 -999
2011-01-21 07:42:33 51°13.695 2°55.732 66.1 0.4 290 -999
2011-01-21 07:42:39 51°13.695 2°55.731 63.9 0.3 313 -999
2011-01-21 07:42:43 51°13.696 2°55.731 61.7 0.3 326 -999
2011-01-21 07:42:48 51°13.696 2°55.731 59.8 0.3 341 -999
2011-01-21 07:42:53 51°13.697 2°55.731 57.5 0.4 1 -999
2011-01-21 07:42:59 51°13.698 2°55.731 54.5 0.4 12 -999
2011-01-21 07:43:03 51°13.698 2°55.731 51.8 0.5 12 -999
2011-01-21 07:43:08 51°13.699 2°55.732 49.1 0.6 20 -999
2011-01-21 07:43:13 51°13.7 2°55.733 46.8 0.7 17 -999
2011-01-21 07:43:18 51°13.701 2°55.733 43.2 0.7 18 -999
2011-01-21 07:43:23 51°13.702 2°55.734 40 0.8 17 -999
2011-01-21 07:43:28 51°13.703 2°55.734 37.4 0.9 18 -999
2011-01-21 07:43:34 51°13.704 2°55.735 34.2 1 14 -999
2011-01-21 07:43:38 51°13.706 2°55.735 30.2 1 13 -999
2011-01-21 07:43:43 51°13.707 2°55.736 26.9 1.1 11 -999
2011-01-21 07:43:48 51°13.709 2°55.736 24.2 1.2 9 -999
2011-01-21 07:43:54 51°13.71 2°55.737 20.9 1.3 6 -999
2011-01-21 07:43:58 51°13.712 2°55.737 17 0.8 5 -999
2011-01-21 07:44:03 51°13.713 2°55.737 14.5 1.2 2 -999
2011-01-21 07:44:09 51°13.716 2°55.736 10.5 1.5 359 -999
2011-01-21 07:44:14 51°13.718 2°55.736 8 1.6 357 -999
2011-01-21 07:44:18 51°13.721 2°55.736 4 0.9 355 -999
2011-01-21 07:44:18 51°13.721 2°55.736 0.7 -999 354 -999
2011-01-21 07:44:18 51°13.721 2°55.736 357.3 -999 175 -999
2011-01-21 07:44:18 51°13.721 2°55.736 353.8 -999 356 -999
2011-01-21 07:44:18 51°13.721 2°55.736 350.3 -999 355 -999
2011-01-21 07:44:43 51°13.73 2°55.731 347 1.3 339 -999
2011-01-21 07:44:48 51°13.733 2°55.729 344.1 2.1 339 -999
2011-01-21 07:44:54 51°13.736 2°55.727 340.2 1.6 337 -999
2011-01-21 07:44:59 51°13.74 2°55.724 336.9 2.5 332 9.8
2011-01-21 07:45:03 51°13.742 2°55.721 332.8 2.8 328 -999
2011-01-21 07:45:08 51°13.746 2°55.717 329.1 3 325 10.1
2011-01-21 07:45:13 51°13.75 2°55.714 326.7 3.3 325 9.2
2011-01-21 07:45:18 51°13.755 2°55.711 325.3 3.5 325 8.9
2011-01-21 07:45:23 51°13.759 2°55.706 324.4 3.8 325 -999
2011-01-21 07:45:28 51°13.763 2°55.701 323.9 4 324 9
2011-01-21 07:45:33 51°13.768 2°55.695 323.7 4.5 324 9.3
2011-01-21 07:45:38 51°13.773 2°55.689 323.7 4.8 324 9.4
2011-01-21 07:45:41 51°13.777 2°55.685 323.7 3 324 9.1
2011-01-21 07:45:41 51°13.777 2°55.685 324 0.2 144 9.4
2011-01-21 07:45:53 51°13.792 2°55.663 324.5 3.6 326 -999
2011-01-21 07:45:57 51°13.797 2°55.657 324.9 4.9 326 -999
2011-01-21 07:46:03 51°13.806 2°55.65 325.8 6.2 328 -999
2011-01-21 07:46:09 51°13.815 2°55.642 326.9 5.1 329 -999
2011-01-21 07:46:13 51°13.822 2°55.636 328 4.6 330 10
2011-01-21 07:46:18 51°13.831 2°55.63 329.1 6.4 331 9.7
2011-01-21 07:46:22 51°13.839 2°55.624 330.3 6 332 9.1
2011-01-21 07:46:28 51°13.851 2°55.615 331.8 3.8 333 9
2011-01-21 07:46:33 51°13.86 2°55.607 332.5 7.1 333 8.7
2011-01-21 07:46:38 51°13.87 2°55.6 332.9 7.9 334 8.5
2011-01-21 07:46:43 51°13.88 2°55.592 333.9 8 335 8.4
2011-01-21 07:46:47 51°13.888 2°55.586 334.6 4.4 336 8.9
2011-01-21 07:46:52 51°13.898 2°55.578 334.8 4.6 335 9.1
2011-01-21 07:46:52 51°13.898 2°55.578 334.9 0.2 335 -999
2011-01-21 07:46:52 51°13.898 2°55.578 335.4 0.1 155 -999
2011-01-21 07:46:52 51°13.898 2°55.578 335.7 -999 335 -999
2011-01-21 07:46:52 51°13.898 2°55.578 335.5 -999 335 -999
2011-01-21 07:46:52 51°13.898 2°55.578 335.4 -999 155 -999
2011-01-21 07:46:52 51°13.898 2°55.578 335.6 -999 155 -999
2011-01-21 07:46:52 51°13.898 2°55.578 336.1 -999 335 -999
2011-01-21 07:46:52 51°13.898 2°55.578 335.1 -999 156 -999
2011-01-21 07:46:52 51°13.898 2°55.578 335 -999 155 -999
2011-01-21 07:46:52 51°13.898 2°55.578 335.3 -999 335 -999
2011-01-21 07:46:52 51°13.898 2°55.578 334.7 -999 335 -999
2011-01-21 07:47:54 51°13.898 2°55.578 334.5 -999 155 -999
2011-01-21 07:47:58 51°13.898 2°55.578 334.6 -999 153 -999
2011-01-21 07:48:02 51°13.898 2°55.578 334.7 -999 335 -999
2011-01-21 07:48:08 51°14.072 2°55.456 334.1 7.7 334 -999
2011-01-21 07:48:14 51°14.084 2°55.437 333.8 9.8 334 -999
2011-01-21 07:48:19 51°14.097 2°55.433 333.6 9.5 334 -999
2011-01-21 07:48:23 51°14.106 2°55.426 333.6 9.5 334 -999
2011-01-21 07:48:28 51°14.118 2°55.416 333.6 9.7 334 -999
2011-01-21 07:48:34 51°14.132 2°55.404 333.6 9.7 334 -999
2011-01-21 07:48:38 51°14.142 2°55.397 333.2 9.7 334 -999
2011-01-21 07:48:43 51°14.154 2°55.388 332.7 9.7 333 -999
2011-01-21 07:48:49 51°14.169 2°55.376 332.4 9.8 333 -999
2011-01-21 07:48:54 51°14.181 2°55.366 332.1 9.8 333 -999
2011-01-21 07:48:59 51°14.193 2°55.356 332.1 9.8 333 -999
2011-01-21 07:49:03 51°14.203 2°55.348 331.9 9.8 332 -999
2011-01-21 07:49:08 51°14.215 2°55.337 330.9 9.8 330 -999
2011-01-21 07:49:14 51°14.229 2°55.325 330.4 9.9 330 -999
2011-01-21 07:49:19 51°14.241 2°55.314 329.9 9.9 330 -999
2011-01-21 07:49:23 51°14.251 2°55.305 329.6 10 330 -999
2011-01-21 07:49:28 51°14.262 2°55.294 329 10 329 -999
2011-01-21 07:49:33 51°14.274 2°55.283 328.4 10 328 -999
2011-01-21 07:49:39 51°14.289 2°55.269 328.2 10.1 329 -999
2011-01-21 07:49:43 51°14.298 2°55.26 328.4 10.2 329 -999
2011-01-21 07:49:48 51°14.31 2°55.248 328.5 10.1 329 -999
2011-01-21 07:49:53 51°14.322 2°55.237 328.7 10.2 329 -999
2011-01-21 07:49:58 51°14.334 2°55.225 328.7 10.3 329 -999
2011-01-21 07:50:03 51°14.347 2°55.213 328.4 10.4 328 -999
2011-01-21 07:50:08 51°14.359 2°55.2 327.5 10.5 327 -999
2011-01-21 07:50:13 51°14.372 2°55.187 327 10.6 327 -999
2011-01-21 07:50:18 51°14.384 2°55.175 326.9 10.6 328 8.6
2011-01-21 07:50:23 51°14.397 2°55.162 327.4 10.7 327 9.3
2011-01-21 07:50:28 51°14.409 2°55.149 326.9 10.8 327 9.1
2011-01-21 07:50:34 51°14.424 2°55.133 326 10.9 326 -999
2011-01-21 07:50:38 51°14.435 2°55.122 325.4 11 327 -999
2011-01-21 07:50:43 51°14.447 2°55.109 325.9 11.1 327 -999
2011-01-21 07:50:48 51°14.46 2°55.095 325.9 11.2 326 9
2011-01-21 07:50:53 51°14.473 2°55.081 325.8 11.3 327 9.3
2011-01-21 07:50:58 51°14.487 2°55.067 325.7 11.4 326 9.2
2011-01-21 07:51:03 51°14.5 2°55.053 325.4 11.5 326 -999
2011-01-21 07:51:08 51°14.513 2°55.038 325.3 11.5 325 9.3
2011-01-21 07:51:13 51°14.526 2°55.023 326 11.5 323 9.6
2011-01-21 07:51:18 51°14.537 2°55.005 325.2 11.7 316 10.1
2011-01-21 07:51:23 51°14.548 2°54.985 320.9 11.8 310 10
2011-01-21 07:51:27 51°14.555 2°54.967 316.5 12.1 307 10.1
2011-01-21 07:51:32 51°14.565 2°54.945 312.2 12.3 304 10
2011-01-21 07:51:37 51°14.574 2°54.922 310.1 12.4 303 10.2
2011-01-21 07:51:42 51°14.583 2°54.898 308.6 12.7 300 10
2011-01-21 07:51:47 51°14.591 2°54.872 305.1 12.9 296 10
2011-01-21 07:51:51 51°14.597 2°54.851 302.2 13 294 10.2
2011-01-21 07:51:56 51°14.603 2°54.824 298.9 13.1 291 10
2011-01-21 07:52:01 51°14.609 2°54.796 295.5 13.2 289 9.9
2011-01-21 07:52:06 51°14.614 2°54.768 292.6 13.4 286 9.8
2011-01-21 07:52:11 51°14.62 2°54.74 289.8 13.4 286 9.9
2011-01-21 07:52:15 51°14.624 2°54.717 289 13.4 287 10
2011-01-21 07:52:21 51°14.63 2°54.682 289.4 13.4 287 9.8
2011-01-21 07:52:26 51°14.635 2°54.654 289 13.5 286 9.6
2011-01-21 07:52:31 51°14.641 2°54.625 288.1 13.5 286 8.9
2011-01-21 07:52:35 51°14.645 2°54.602 288 13.4 286 8.6
2011-01-21 07:52:40 51°14.65 2°54.574 288 13.3 286 8.4
2011-01-21 07:52:45 51°14.655 2°54.546 288.3 13.2 287 8.4
2011-01-21 07:52:50 51°14.661 2°54.519 288.6 13.3 287 8.5
2011-01-21 07:52:55 51°14.667 2°54.491 289.3 13.3 287 8.5
2011-01-21 07:52:59 51°14.671 2°54.468 289.7 13.4 287 8.5
2011-01-21 07:53:05 51°14.678 2°54.434 290 13.4 287 8.4
2011-01-21 07:53:10 51°14.683 2°54.406 290.2 13.4 288 8.2
2011-01-21 07:53:15 51°14.689 2°54.378 290.7 13.4 288 8.5
2011-01-21 07:53:19 51°14.694 2°54.355 291.4 13.4 289 8.5
2011-01-21 07:53:25 51°14.701 2°54.322 291.9 13.4 290 8.3
2011-01-21 07:53:30 51°14.707 2°54.293 292.5 13.5 290 8.3
2011-01-21 07:53:35 51°14.714 2°54.265 292.8 13.5 290 8.3
2011-01-21 07:53:39 51°14.719 2°54.242 292.8 13.5 290 8.4
2011-01-21 07:53:45 51°14.726 2°54.208 292.6 13.5 290 8.3
2011-01-21 07:53:50 51°14.732 2°54.18 292.5 13.5 289 8.1
2011-01-21 07:53:55 51°14.739 2°54.152 292.2 13.5 289 8.4
2011-01-21 07:54:00 51°14.745 2°54.123 291.9 13.6 289 8.4
2011-01-21 07:54:05 51°14.75 2°54.094 291.6 13.6 289 8.3
2011-01-21 07:54:10 51°14.756 2°54.066 291.5 13.6 288 8.4
2011-01-21 07:54:15 51°14.762 2°54.037 291.3 13.6 288 8.1
2011-01-21 07:54:20 51°14.768 2°54.009 291 13.5 288 8.4
2011-01-21 07:54:25 51°14.773 2°53.98 290.8 13.6 288 7.8
2011-01-21 07:54:30 51°14.779 2°53.952 291 13.4 289 7.9
2011-01-21 07:54:35 51°14.785 2°53.924 291.3 13.3 289 8
2011-01-21 07:54:40 51°14.791 2°53.897 291.9 13.3 290 6
2011-01-21 07:54:45 51°14.798 2°53.869 292.4 13.2 290 8.2
2011-01-21 07:54:50 51°14.804 2°53.841 293.2 13.3 290 5.9
2011-01-21 07:54:55 51°14.811 2°53.814 293.1 13.3 290 7.9
2011-01-21 07:54:59 51°14.816 2°53.792 293.3 13.3 290 8.2
2011-01-21 07:55:05 51°14.823 2°53.759 293.3 13.4 290 8.1
2011-01-21 07:55:10 51°14.829 2°53.731 293.2 13.4 290 8
2011-01-21 07:55:15 51°14.836 2°53.703 292.7 13.5 289 8.1
2011-01-21 07:55:19 51°14.841 2°53.68 292.7 13.4 290 5.9
2011-01-21 07:55:25 51°14.848 2°53.646 292.4 13.4 289 8.4
2011-01-21 07:55:30 51°14.854 2°53.618 292.3 13.4 289 8.2
2011-01-21 07:55:35 51°14.86 2°53.59 292 13.5 289 8.4
2011-01-21 07:55:39 51°14.865 2°53.568 291.8 13.5 288 8.1
2011-01-21 07:55:45 51°14.872 2°53.534 291.1 13.6 287 8.1
2011-01-21 07:55:50 51°14.878 2°53.505 290.5 13.5 287 8.3
2011-01-21 07:55:55 51°14.883 2°53.476 290.3 13.6 287 8.2
2011-01-21 07:55:59 51°14.887 2°53.453 289.7 13.7 287 8.4
2011-01-21 07:56:04 51°14.892 2°53.424 290 13.7 287 8.2
2011-01-21 07:56:10 51°14.899 2°53.389 289.9 13.7 286 8.2
2011-01-21 07:56:15 51°14.904 2°53.36 289.7 13.7 287 8.5
2011-01-21 07:56:19 51°14.909 2°53.337 289.9 13.6 288 8.3
2011-01-21 07:56:24 51°14.915 2°53.309 290.4 13.6 288 8.5
2011-01-21 07:56:29 51°14.921 2°53.28 290.8 13.6 288 8.4
2011-01-21 07:56:34 51°14.927 2°53.252 290.8 13.6 288 8.4
2011-01-21 07:56:39 51°14.933 2°53.223 291.1 13.7 289 8.5
2011-01-21 07:56:44 51°14.939 2°53.195 291.3 13.6 289 8.2
2011-01-21 07:56:49 51°14.945 2°53.166 291.8 13.6 289 8.5
2011-01-21 07:56:54 51°14.951 2°53.138 291.6 13.7 288 8.5
2011-01-21 07:57:00 51°14.958 2°53.103 290.7 13.7 287 8.5
2011-01-21 07:57:05 51°14.963 2°53.073 289.9 13.8 286 8.5
2011-01-21 07:57:10 51°14.967 2°53.044 289 13.8 285 8.4
2011-01-21 07:57:15 51°14.972 2°53.014 286.9 13.8 283 8.7
2011-01-21 07:57:20 51°14.976 2°52.985 285.3 13.8 282 8.6
2011-01-21 07:57:25 51°14.98 2°52.955 284.5 13.8 283 8.7
2011-01-21 07:57:30 51°14.985 2°52.925 285.3 13.8 284 8.8
2011-01-21 07:57:35 51°14.99 2°52.896 286.8 13.8 286 9
2011-01-21 07:57:40 51°14.997 2°52.868 289.5 13.8 289 8.8
2011-01-21 07:57:45 51°15.003 2°52.84 292.3 13.7 291 9
2011-01-21 07:57:50 51°15.011 2°52.812 294.8 13.6 293 8.6
2011-01-21 07:57:55 51°15.019 2°52.785 296.9 13.5 295 8.6
2011-01-21 07:58:00 51°15.028 2°52.759 298.6 13.5 296 9.1
2011-01-21 07:58:04 51°15.034 2°52.737 299.5 13.5 296 9.1
2011-01-21 07:58:10 51°15.044 2°52.705 299.9 13.5 296 9.1
2011-01-21 07:58:15 51°15.052 2°52.677 299.5 13.7 295 9.1
2011-01-21 07:58:20 51°15.059 2°52.65 298.4 13.7 293 8.8
2011-01-21 07:58:24 51°15.065 2°52.627 296.6 13.7 292 9.3
2011-01-21 07:58:30 51°15.073 2°52.593 294.9 13.7 290 9.3
2011-01-21 07:58:35 51°15.079 2°52.565 293.3 13.7 289 9.1
2011-01-21 07:58:40 51°15.085 2°52.536 291.8 13.7 288 9.2
2011-01-21 07:58:45 51°15.09 2°52.507 290.7 13.7 288 9.3
2011-01-21 07:58:50 51°15.096 2°52.478 289.8 13.7 287 9.3
2011-01-21 07:58:55 51°15.102 2°52.449 289.7 13.8 287 9
2011-01-21 07:59:00 51°15.107 2°52.42 289.8 13.7 288 9.3
2011-01-21 07:59:04 51°15.112 2°52.397 290.4 13.7 289 9.4
2011-01-21 07:59:10 51°15.12 2°52.363 291.2 13.7 289 9.5
2011-01-21 07:59:15 51°15.126 2°52.334 292.1 13.7 290 9.3
2011-01-21 07:59:20 51°15.133 2°52.306 292.8 13.7 290 9.5
2011-01-21 07:59:25 51°15.139 2°52.278 293.5 13.7 291 9.4
2011-01-21 07:59:30 51°15.147 2°52.25 294.1 13.6 292 9.7
2011-01-21 07:59:35 51°15.153 2°52.222 294.6 13.7 292 9.8
2011-01-21 07:59:40 51°15.16 2°52.194 294.9 13.7 291 9.6
2011-01-21 07:59:45 51°15.167 2°52.165 294.8 13.7 291 10.1
2011-01-21 07:59:50 51°15.174 2°52.137 294.5 13.7 290 9.8
2011-01-21 07:59:55 51°15.18 2°52.108 294 13.7 290 9.8
2011-01-21 08:00:00 51°15.187 2°52.08 293.9 13.7 291 10
2011-01-21 08:00:05 51°15.194 2°52.052 293.9 13.6 291 10.3
2011-01-21 08:00:10 51°15.201 2°52.023 293.8 13.7 290 10.3
2011-01-21 08:00:15 51°15.207 2°51.995 293.7 13.7 290 10.3
2011-01-21 08:00:20 51°15.213 2°51.966 293.6 13.7 290 9.4
2011-01-21 08:00:24 51°15.219 2°51.943 293.5 13.7 290 9.3
2011-01-21 08:00:30 51°15.226 2°51.909 293.4 13.8 290 10.5
2011-01-21 08:00:35 51°15.232 2°51.88 293.2 13.7 289 9.9
2011-01-21 08:00:40 51°15.238 2°51.851 292.3 13.7 288 10.6
2011-01-21 08:00:44 51°15.242 2°51.828 290.4 13.8 285 10.5
2011-01-21 08:00:50 51°15.247 2°51.792 287.7 13.8 283 10.5
2011-01-21 08:00:55 51°15.251 2°51.762 285.3 14 280 10.6
2011-01-21 08:01:00 51°15.254 2°51.731 283.8 14 280 10.8
2011-01-21 08:01:04 51°15.256 2°51.707 282.5 14 279 10.9
2011-01-21 08:01:10 51°15.26 2°51.67 281.7 14 278 10.8
2011-01-21 08:01:15 51°15.262 2°51.639 281.1 14.1 278 11
2011-01-21 08:01:20 51°15.265 2°51.608 281.2 14.1 278 10.8
2011-01-21 08:01:25 51°15.268 2°51.577 281.6 14.1 279 11.1
2011-01-21 08:01:30 51°15.271 2°51.546 282.1 14.1 279 11.2
2011-01-21 08:01:35 51°15.275 2°51.516 282.6 14.2 280 10.8
2011-01-21 08:01:40 51°15.278 2°51.485 282.9 14.1 279 11
2011-01-21 08:01:44 51°15.28 2°51.46 282.5 14.1 278 10.9
2011-01-21 08:01:50 51°15.282 2°51.423 280.8 14.2 275 10.9
2011-01-21 08:01:55 51°15.283 2°51.391 278.5 14.2 273 10.7
2011-01-21 08:02:00 51°15.283 2°51.36 275.2 14.3 270 10.8
2011-01-21 08:02:04 51°15.283 2°51.335 272.6 14.3 269 11
2011-01-21 08:02:10 51°15.282 2°51.296 270.7 14.4 268 11
2011-01-21 08:02:15 51°15.28 2°51.264 269.2 14.5 266 10.9
2011-01-21 08:02:20 51°15.279 2°51.232 267.9 14.5 265 11
2011-01-21 08:02:24 51°15.277 2°51.207 267.1 14.5 265 11.1
2011-01-21 08:02:30 51°15.275 2°51.168 266.3 14.6 264 11
2011-01-21 08:02:35 51°15.273 2°51.136 265.4 14.6 264 11
2011-01-21 08:02:40 51°15.27 2°51.104 265.1 14.7 264 11.1
2011-01-21 08:02:44 51°15.269 2°51.078 265.1 14.7 264 11
2011-01-21 08:02:50 51°15.266 2°51.039 265.4 14.7 265 11.1
2011-01-21 08:02:55 51°15.265 2°51.007 266.6 14.6 265 11.2
2011-01-21 08:03:00 51°15.263 2°50.975 267.2 14.7 265 11.2
2011-01-21 08:03:04 51°15.262 2°50.949 267.9 14.7 267 11.2
2011-01-21 08:03:10 51°15.261 2°50.91 268.3 14.7 266 11.2
2011-01-21 08:03:15 51°15.259 2°50.877 268.3 14.7 267 11.3
2011-01-21 08:03:20 51°15.258 2°50.845 268.6 14.7 267 11.4
2011-01-21 08:03:24 51°15.257 2°50.819 268.8 14.8 266 11.4
2011-01-21 08:03:30 51°15.256 2°50.78 268.7 14.7 267 11.4
2011-01-21 08:03:35 51°15.255 2°50.747 268.6 14.8 266 11.3
2011-01-21 08:03:40 51°15.253 2°50.714 268.3 14.8 266 11.4
2011-01-21 08:03:44 51°15.252 2°50.688 268.3 14.8 267 11.2
2011-01-21 08:03:50 51°15.25 2°50.649 268.4 14.8 266 11.4
2011-01-21 08:03:55 51°15.249 2°50.616 268.1 14.8 266 11.3
2011-01-21 08:04:00 51°15.248 2°50.583 268 14.8 266 11.3
2011-01-21 08:04:04 51°15.246 2°50.557 268.3 14.8 265 11.3
2011-01-21 08:04:10 51°15.245 2°50.518 267.9 14.8 266 11.6
2011-01-21 08:04:15 51°15.243 2°50.485 267.6 14.8 265 11.6
2011-01-21 08:04:20 51°15.242 2°50.453 267.7 14.9 266 11.4
2011-01-21 08:04:24 51°15.241 2°50.427 267.8 14.8 266 11.6
2011-01-21 08:04:30 51°15.239 2°50.387 268.3 14.8 266 11.5
2011-01-21 08:04:35 51°15.237 2°50.355 268.3 14.8 266 11.6
2011-01-21 08:04:40 51°15.235 2°50.322 266.9 14.9 263 11.5
2011-01-21 08:04:44 51°15.232 2°50.296 264.6 14.9 262 11.7
2011-01-21 08:04:50 51°15.228 2°50.257 262.4 14.9 259 11.6
2011-01-21 08:04:55 51°15.224 2°50.224 260.7 15 259 11.6
2011-01-21 08:05:00 51°15.219 2°50.192 258.8 15 256 11.6
2011-01-21 08:05:04 51°15.215 2°50.166 257.7 15 257 11.7
2011-01-21 08:05:10 51°15.209 2°50.128 257.3 15 256 11.6
2011-01-21 08:05:15 51°15.204 2°50.095 256.3 15.1 256 11.6
2011-01-21 08:05:20 51°15.199 2°50.063 256.4 15.1 257 11.6
2011-01-21 08:05:25 51°15.194 2°50.03 257 15.1 256 11.6
2011-01-21 08:05:30 51°15.19 2°49.998 257.8 15 258 11
2011-01-21 08:05:35 51°15.185 2°49.965 258.1 15.1 257 11.6
2011-01-21 08:05:40 51°15.182 2°49.932 258.5 15.1 260 11.4
2011-01-21 08:05:44 51°15.178 2°49.907 259.2 15 257 11.3
2011-01-21 08:05:50 51°15.173 2°49.867 258.6 15 260 11.4
2011-01-21 08:05:55 51°15.168 2°49.835 258.7 15 257 11.7
2011-01-21 08:06:00 51°15.164 2°49.803 258.1 15.1 257 11.7
2011-01-21 08:06:05 51°15.159 2°49.77 257.9 15 258 11.1
2011-01-21 08:06:10 51°15.154 2°49.738 257.2 15.1 256 11.2
2011-01-21 08:06:15 51°15.15 2°49.705 256.9 15.1 257 11.5
2011-01-21 08:06:20 51°15.145 2°49.673 256.7 15.1 257 11.6
2011-01-21 08:06:25 51°15.14 2°49.641 257.5 15 257 11.7
2011-01-21 08:06:30 51°15.135 2°49.608 257.5 15.1 257 11.8
2011-01-21 08:06:35 51°15.131 2°49.575 258.1 15.1 259 11.7
2011-01-21 08:06:40 51°15.126 2°49.543 258.9 15 257 11.7
2011-01-21 08:06:44 51°15.123 2°49.517 258.6 15 259 11.6
2011-01-21 08:06:50 51°15.118 2°49.478 259.4 15 258 11.6
2011-01-21 08:06:55 51°15.114 2°49.445 259.2 15.1 259 11.6
2011-01-21 08:07:00 51°15.11 2°49.412 259.5 15 258 11.4
2011-01-21 08:07:04 51°15.106 2°49.386 258.9 15.1 257 11.5
2011-01-21 08:07:10 51°15.102 2°49.347 259.1 15.1 259 11.7
2011-01-21 08:07:15 51°15.097 2°49.315 259.7 15 257 11.6
2011-01-21 08:07:20 51°15.093 2°49.282 258.5 15.1 258 11.6
2011-01-21 08:07:25 51°15.089 2°49.25 259.2 15.1 258 11.6
2011-01-21 08:07:29 51°15.085 2°49.224 259.2 15 258 11.6
2011-01-21 08:07:35 51°15.08 2°49.185 259.2 14.9 259 11.6
2011-01-21 08:07:40 51°15.076 2°49.152 258.7 15.1 258 11.5
2011-01-21 08:07:44 51°15.072 2°49.126 258.7 15.1 258 11.6
2011-01-21 08:07:50 51°15.067 2°49.088 259.2 14.9 258 11.6
2011-01-21 08:07:55 51°15.063 2°49.055 258.5 14.9 257 11.7
2011-01-21 08:08:00 51°15.058 2°49.023 258.8 15.1 258 11.6
2011-01-21 08:08:05 51°15.054 2°48.99 258.9 15 258 11.5
2011-01-21 08:08:10 51°15.05 2°48.958 258.2 14.9 258 11.3
2011-01-21 08:08:15 51°15.045 2°48.926 258.4 15 258 11.5
2011-01-21 08:08:20 51°15.041 2°48.893 258.5 15 258 11.6
2011-01-21 08:08:24 51°15.038 2°48.867 258.8 15 258 11.4
2011-01-21 08:08:30 51°15.032 2°48.828 258.9 15 258 11.6
2011-01-21 08:08:35 51°15.028 2°48.796 258.7 15 259 11.4
2011-01-21 08:08:40 51°15.025 2°48.763 259.1 15 260 11.7
2011-01-21 08:08:44 51°15.023 2°48.737 261.8 14.9 263 11.6
2011-01-21 08:08:50 51°15.02 2°48.698 263.5 14.9 264 11.6
2011-01-21 08:08:55 51°15.018 2°48.665 265.6 14.9 265 11.6
2011-01-21 08:09:00 51°15.017 2°48.632 267.3 14.8 266 11.6
2011-01-21 08:09:04 51°15.016 2°48.606 268.1 14.8 267 11.4
2011-01-21 08:09:10 51°15.015 2°48.567 269 14.9 267 11.4
2011-01-21 08:09:15 51°15.015 2°48.534 269.8 14.8 268 11.7
2011-01-21 08:09:20 51°15.014 2°48.501 270.2 14.8 268 11.7
2011-01-21 08:09:24 51°15.014 2°48.475 270.3 14.7 269 11.7
2011-01-21 08:09:29 51°15.013 2°48.443 270.7 14.8 269 11.6
2011-01-21 08:09:35 51°15.012 2°48.403 270.8 14.8 269 11.7
2011-01-21 08:09:40 51°15.012 2°48.371 270.7 14.8 268 11.9
2011-01-21 08:09:44 51°15.011 2°48.344 270.3 14.8 268 11.8
2011-01-21 08:09:50 51°15.01 2°48.305 270.1 14.9 268 11.8
2011-01-21 08:09:55 51°15.009 2°48.273 270.1 14.8 268 11.6
2011-01-21 08:10:00 51°15.009 2°48.24 270 14.8 268 11.8
2011-01-21 08:10:05 51°15.008 2°48.207 270.4 14.7 268 11.9
2011-01-21 08:10:10 51°15.008 2°48.175 270.2 14.6 269 11.8
2011-01-21 08:10:15 51°15.007 2°48.143 270.6 14.5 268 11.9
2011-01-21 08:10:20 51°15.007 2°48.111 270.6 14.5 270 11.8
2011-01-21 08:10:24 51°15.006 2°48.085 270.2 14.5 268 11.6
2011-01-21 08:10:30 51°15.006 2°48.047 270 14.4 268 11.6
2011-01-21 08:10:35 51°15.005 2°48.015 269.4 14.4 267 11.9
2011-01-21 08:10:40 51°15.004 2°47.984 269.4 14.4 268 11.9
2011-01-21 08:10:45 51°15.003 2°47.952 269.9 14.3 268 11.9
2011-01-21 08:10:50 51°15.003 2°47.921 270 14.3 267 11.8
2011-01-21 08:10:55 51°15.002 2°47.889 269.6 14.3 268 11.9
2011-01-21 08:11:00 51°15.001 2°47.857 269.4 14.3 267 12.2
2011-01-21 08:11:04 51°15.001 2°47.832 269.4 14.3 268 11.9
2011-01-21 08:11:10 51°15 2°47.795 269.4 14.1 268 11.7
2011-01-21 08:11:15 51°14.999 2°47.763 269.3 14.2 268 11.7
2011-01-21 08:11:20 51°14.998 2°47.732 269 14.2 268 11.7
2011-01-21 08:11:24 51°14.997 2°47.707 269.1 14.2 267 11.6
2011-01-21 08:11:30 51°14.997 2°47.669 269.2 14.2 268 11.3
2011-01-21 08:11:35 51°14.996 2°47.638 269.3 14.1 267 11.1
2011-01-21 08:11:40 51°14.995 2°47.607 269.2 14 268 11.3
2011-01-21 08:11:44 51°14.995 2°47.583 269.3 13.9 269 11
2011-01-21 08:11:50 51°14.994 2°47.546 269.3 14 268 10.6
2011-01-21 08:11:55 51°14.993 2°47.515 269.4 14 268 10.6
2011-01-21 08:12:00 51°14.992 2°47.484 269.4 14 267 10.3
2011-01-21 08:12:05 51°14.992 2°47.453 269.1 14 268 10.1
2011-01-21 08:12:10 51°14.991 2°47.422 269.3 13.9 269 10
2011-01-21 08:12:15 51°14.991 2°47.392 269.4 13.8 268 9.9
2011-01-21 08:12:20 51°14.99 2°47.361 269.4 13.8 267 9.6
2011-01-21 08:12:24 51°14.989 2°47.337 269.1 13.8 268 9.6
2011-01-21 08:12:30 51°14.988 2°47.3 269 13.8 267 9.3
2011-01-21 08:12:35 51°14.988 2°47.27 268.6 13.8 268 9.2
2011-01-21 08:12:40 51°14.987 2°47.24 269 13.8 268 9
2011-01-21 08:12:44 51°14.986 2°47.215 268.4 13.7 267 9
2011-01-21 08:12:50 51°14.984 2°47.179 267.9 13.6 266 8.9
2011-01-21 08:12:55 51°14.982 2°47.149 266.5 13.7 265 8.5
2011-01-21 08:13:00 51°14.98 2°47.119 265.7 13.6 263 8.5
2011-01-21 08:13:05 51°14.977 2°47.089 264.2 13.7 262 8.4
2011-01-21 08:13:10 51°14.974 2°47.06 263.3 13.6 260 8.3
2011-01-21 08:13:15 51°14.971 2°47.03 261.5 13.7 261 8.5
2011-01-21 08:13:20 51°14.967 2°47 261 13.7 259 8.2
2011-01-21 08:13:24 51°14.965 2°46.976 260.1 13.7 261 8.2
2011-01-21 08:13:30 51°14.96 2°46.941 260.3 13.7 258 8
2011-01-21 08:13:35 51°14.957 2°46.911 259.3 13.7 260 8.3
2011-01-21 08:13:40 51°14.953 2°46.882 259.9 13.6 259 8.1
2011-01-21 08:13:44 51°14.951 2°46.858 260.1 13.7 260 8.3
2011-01-21 08:13:50 51°14.947 2°46.822 260.8 13.6 261 8
2011-01-21 08:13:55 51°14.945 2°46.792 261 13.7 262 8
2011-01-21 08:14:00 51°14.943 2°46.762 263.6 13.6 264 7.9
2011-01-21 08:14:04 51°14.942 2°46.738 265 13.7 266 8
2011-01-21 08:14:10 51°14.94 2°46.702 266.9 13.6 267 7.9
2011-01-21 08:14:15 51°14.94 2°46.672 268.4 13.6 268 5.9
2011-01-21 08:14:20 51°14.939 2°46.642 269.1 13.6 267 7.9
2011-01-21 08:14:24 51°14.938 2°46.618 268.7 13.6 267 8
2011-01-21 08:14:30 51°14.936 2°46.582 268.4 13.6 265 8.1
2011-01-21 08:14:35 51°14.934 2°46.552 267.1 13.7 265 8
2011-01-21 08:14:40 51°14.932 2°46.522 265.5 13.7 263 8.4
2011-01-21 08:14:45 51°14.929 2°46.492 264.6 13.7 261 8.2
2011-01-21 08:14:50 51°14.926 2°46.462 262.1 13.7 260 6
2011-01-21 08:14:55 51°14.921 2°46.432 259.5 13.8 256 8.4
2011-01-21 08:15:00 51°14.916 2°46.403 257.3 13.9 256 8.3
2011-01-21 08:15:05 51°14.91 2°46.373 255.1 13.9 253 8.1
2011-01-21 08:15:10 51°14.905 2°46.344 253.3 14 253 8.1
2011-01-21 08:15:15 51°14.899 2°46.314 252.7 13.9 253 8.3
2011-01-21 08:15:20 51°14.893 2°46.285 252.7 13.9 252 8.2
2011-01-21 08:15:24 51°14.889 2°46.262 251.9 13.9 254 8.2
2011-01-21 08:15:30 51°14.882 2°46.226 253.1 13.9 253 8.5
2011-01-21 08:15:35 51°14.878 2°46.196 254 14 257 8.3
2011-01-21 08:15:40 51°14.874 2°46.166 256.9 14 258 8.5
2011-01-21 08:15:44 51°14.871 2°46.142 258.7 14 259 8.8
2011-01-21 08:15:50 51°14.868 2°46.105 260.8 14 262 8.5
2011-01-21 08:15:55 51°14.865 2°46.074 262.5 14 261 8.8
2011-01-21 08:16:00 51°14.863 2°46.044 263.2 13.9 263 8.8
2011-01-21 08:16:04 51°14.86 2°46.019 263.8 14 262 9.2
2011-01-21 08:16:10 51°14.858 2°45.981 264.1 14.2 264 9.3
2011-01-21 08:16:15 51°14.856 2°45.95 264.3 14.2 264 9.2
2011-01-21 08:16:20 51°14.852 2°45.919 263.9 14.2 262 9.4
2011-01-21 08:16:24 51°14.85 2°45.894 262.4 14.2 260 9.5
2011-01-21 08:16:30 51°14.844 2°45.858 260.6 14.2 257 9.7
2011-01-21 08:16:35 51°14.839 2°45.827 257.9 14.3 255 9.9
2011-01-21 08:16:40 51°14.833 2°45.797 255.2 14.4 253 9.9
2011-01-21 08:16:45 51°14.826 2°45.767 252.2 14.3 250 10
2011-01-21 08:16:50 51°14.819 2°45.738 250 14.4 249 10.2
2011-01-21 08:16:55 51°14.812 2°45.708 249 14.3 249 10.2
2011-01-21 08:17:00 51°14.804 2°45.679 248 14.3 247 10.2
2011-01-21 08:17:04 51°14.798 2°45.655 246.9 14.5 247 10.2
2011-01-21 08:17:10 51°14.789 2°45.62 246.7 14.4 246 10.3
2011-01-21 08:17:15 51°14.781 2°45.591 246.9 14.3 248 10.2
2011-01-21 08:17:20 51°14.773 2°45.562 246.7 14.4 247 10.3
2011-01-21 08:17:25 51°14.766 2°45.532 246.3 14.5 247 10.3
2011-01-21 08:17:30 51°14.758 2°45.503 246.8 14.4 246 10.5
2011-01-21 08:17:35 51°14.75 2°45.474 246.7 14.3 247 10.7
2011-01-21 08:17:40 51°14.742 2°45.445 246.4 14.4 248 10.1
2011-01-21 08:17:45 51°14.734 2°45.416 246.8 14.4 246 10.7
2011-01-21 08:17:50 51°14.727 2°45.387 247.1 14.2 248 10.5
2011-01-21 08:17:55 51°14.719 2°45.358 247 14.3 247 10.7
2011-01-21 08:18:00 51°14.712 2°45.328 247 14.4 249 10.8
2011-01-21 08:18:04 51°14.705 2°45.305 247.5 14.3 247 10.7
2011-01-21 08:18:10 51°14.696 2°45.27 247.2 14.3 246 10.8
2011-01-21 08:18:15 51°14.688 2°45.24 246.1 14.5 248 10.8
2011-01-21 08:18:20 51°14.681 2°45.211 246.7 14.3 247 10.9
2011-01-21 08:18:24 51°14.674 2°45.188 247 14.3 247 10.9
2011-01-21 08:18:30 51°14.665 2°45.153 246.5 14.5 246 11
2011-01-21 08:18:35 51°14.657 2°45.123 246.4 14.4 248 10.9
2011-01-21 08:18:40 51°14.649 2°45.095 245.9 14.4 245 10.9
2011-01-21 08:18:44 51°14.642 2°45.071 245.1 14.5 246 11.1
2011-01-21 08:18:50 51°14.632 2°45.036 245.3 14.5 245 11.3
2011-01-21 08:18:55 51°14.624 2°45.008 244.8 14.3 245 11.1
2011-01-21 08:19:00 51°14.615 2°44.979 244 14.4 244 11.3
2011-01-21 08:19:04 51°14.608 2°44.956 243.3 14.5 244 11.5
2011-01-21 08:19:10 51°14.597 2°44.922 243.4 14.4 244 11.4
2011-01-21 08:19:15 51°14.588 2°44.894 242.8 14.4 243 11.4
2011-01-21 08:19:20 51°14.579 2°44.865 242.1 14.5 243 11.5
2011-01-21 08:19:24 51°14.572 2°44.842 242.5 14.5 244 11.6
2011-01-21 08:19:30 51°14.561 2°44.808 243.2 14.4 243 11.7
2011-01-21 08:19:35 51°14.553 2°44.779 243.2 14.4 244 11.7
2011-01-21 08:19:40 51°14.544 2°44.751 243.5 14.4 245 11.6
2011-01-21 08:19:44 51°14.537 2°44.727 244 14.5 244 11.9
2011-01-21 08:19:50 51°14.527 2°44.693 244.2 14.4 246 11.7
2011-01-21 08:19:55 51°14.518 2°44.664 243.7 14.4 243 12
2011-01-21 08:20:00 51°14.51 2°44.635 243.6 14.4 246 11.8
2011-01-21 08:20:05 51°14.499 2°44.608 242.5 14.5 240 12.1
2011-01-21 08:20:10 51°14.49 2°44.58 240.6 14.4 242 11.9
2011-01-21 08:20:15 51°14.478 2°44.554 238.2 14.5 237 12
2011-01-21 08:20:20 51°14.467 2°44.527 235.7 14.6 236 12
2011-01-21 08:20:24 51°14.458 2°44.506 234.2 14.6 235 12.3
2011-01-21 08:20:30 51°14.444 2°44.475 233.2 14.4 234 12.1
2011-01-21 08:20:35 51°14.432 2°44.449 231.9 14.6 235 12.1
2011-01-21 08:20:40 51°14.42 2°44.423 232.4 14.6 234 12
2011-01-21 08:20:44 51°14.41 2°44.402 232.1 14.6 233 12.1
2011-01-21 08:20:50 51°14.396 2°44.371 230.9 14.6 233 11.9
2011-01-21 08:20:55 51°14.383 2°44.346 230 14.5 230 12.2
2011-01-21 08:21:00 51°14.37 2°44.321 229.4 14.5 232 12
2011-01-21 08:21:04 51°14.36 2°44.302 228.8 14.6 229 12.1
2011-01-21 08:21:10 51°14.345 2°44.271 228.7 14.5 232 11.9
2011-01-21 08:21:14 51°14.334 2°44.252 227.9 14.6 228 12.1
2011-01-21 08:21:20 51°14.319 2°44.222 227.9 14.4 232 12
2011-01-21 08:21:25 51°14.306 2°44.198 228.5 14.4 229 12
2011-01-21 08:21:30 51°14.294 2°44.173 227.7 14.5 232 12
2011-01-21 08:21:35 51°14.28 2°44.149 228.8 14.5 229 11.9
2011-01-21 08:21:40 51°14.268 2°44.123 227.8 14.6 231 12
2011-01-21 08:21:44 51°14.258 2°44.104 228.7 14.5 230 11.9
2011-01-21 08:21:50 51°14.243 2°44.074 228.8 14.5 232 11.9
2011-01-21 08:21:55 51°14.229 2°44.05 228.7 14.4 229 11.7
2011-01-21 08:22:00 51°14.217 2°44.025 227.9 14.6 231 11.9
2011-01-21 08:22:05 51°14.204 2°44 228.9 14.5 231 11.8
2011-01-21 08:22:10 51°14.191 2°43.975 228.7 14.4 229 11.9
2011-01-21 08:22:15 51°14.178 2°43.95 227.8 14.6 231 11.9
2011-01-21 08:22:20 51°14.165 2°43.926 228.1 14.4 230 11.8
2011-01-21 08:22:25 51°14.152 2°43.902 227.3 14.5 229 11.8
2011-01-21 08:22:30 51°14.139 2°43.877 227.3 14.7 230 11.9
2011-01-21 08:22:35 51°14.126 2°43.853 227.7 14.5 231 11.8
2011-01-21 08:22:40 51°14.113 2°43.829 228 14.4 229 11.8
2011-01-21 08:22:44 51°14.103 2°43.809 227.7 14.5 231 11.6
2011-01-21 08:22:49 51°14.09 2°43.784 228.3 14.6 231 11.7
2011-01-21 08:22:55 51°14.075 2°43.754 228.9 14.5 231 11.7
2011-01-21 08:23:00 51°14.062 2°43.73 228.9 14.3 231 11.6
2011-01-21 08:23:04 51°14.052 2°43.711 227.8 14.5 229 11.6
2011-01-21 08:23:10 51°14.036 2°43.68 227.8 14.6 230 11.8
2011-01-21 08:23:15 51°14.023 2°43.655 228.4 14.6 231 11.6
2011-01-21 08:23:20 51°14.01 2°43.631 228.3 14.6 229 11.7
2011-01-21 08:23:25 51°13.997 2°43.606 228.3 14.5 231 11.8
2011-01-21 08:23:30 51°13.985 2°43.582 228.7 14.4 230 11.6
2011-01-21 08:23:35 51°13.972 2°43.557 227.9 14.5 230 11.7
2011-01-21 08:23:40 51°13.958 2°43.533 228.1 14.6 230 11.8
2011-01-21 08:23:44 51°13.948 2°43.513 228.3 14.6 230 11.8
2011-01-21 08:23:50 51°13.933 2°43.483 228.9 14.5 231 11.7
2011-01-21 08:23:55 51°13.92 2°43.459 228.2 14.4 229 11.7
2011-01-21 08:24:00 51°13.907 2°43.435 227.5 14.5 230 11.7
2011-01-21 08:24:05 51°13.893 2°43.411 227.2 14.6 228 11.6
2011-01-21 08:24:10 51°13.88 2°43.386 227.4 14.5 230 11.9
2011-01-21 08:24:15 51°13.867 2°43.362 228.5 14.4 230 11.7
2011-01-21 08:24:20 51°13.855 2°43.337 228.1 14.5 230 11.6
2011-01-21 08:24:25 51°13.842 2°43.313 228.2 14.5 230 11.7
2011-01-21 08:24:30 51°13.828 2°43.288 228.5 14.5 229 11.8
2011-01-21 08:24:35 51°13.816 2°43.264 228 14.5 230 11.7
2011-01-21 08:24:40 51°13.802 2°43.239 228.4 14.5 229 11.6
2011-01-21 08:24:44 51°13.792 2°43.22 227.9 14.5 230 11.4
2011-01-21 08:24:50 51°13.776 2°43.191 227.6 14.6 228 11.6
2011-01-21 08:24:55 51°13.763 2°43.166 227.9 14.6 231 11.5
2011-01-21 08:25:00 51°13.75 2°43.141 228.5 14.7 229 11.6
2011-01-21 08:25:04 51°13.74 2°43.121 229 14.7 231 11.5
2011-01-21 08:25:10 51°13.725 2°43.091 229.3 14.6 230 11.6
2011-01-21 08:25:15 51°13.712 2°43.067 229.4 14.5 231 11.5
2011-01-21 08:25:20 51°13.699 2°43.042 229.2 14.5 230 11.5
2011-01-21 08:25:25 51°13.686 2°43.017 229.2 14.6 231 11.5
2011-01-21 08:25:30 51°13.673 2°42.992 229 14.6 230 11.6
2011-01-21 08:25:35 51°13.661 2°42.968 229.4 14.4 231 11.3
2011-01-21 08:25:40 51°13.648 2°42.944 229.2 14.4 229 11.5
2011-01-21 08:25:44 51°13.638 2°42.924 228.7 14.5 231 11.5
2011-01-21 08:25:50 51°13.622 2°42.894 228.8 14.6 229 11.6
2011-01-21 08:25:55 51°13.61 2°42.868 228.7 14.6 232 11.5
2011-01-21 08:26:00 51°13.597 2°42.844 229.9 14.5 231 11.4
2011-01-21 08:26:05 51°13.585 2°42.818 230.7 14.5 233 11.2
2011-01-21 08:26:10 51°13.573 2°42.792 231.5 14.6 234 11.2
2011-01-21 08:26:15 51°13.561 2°42.766 232.3 14.7 234 11.6
2011-01-21 08:26:20 51°13.549 2°42.739 234.2 14.6 236 11.2
2011-01-21 08:26:25 51°13.538 2°42.713 234.3 14.6 235 11.3
2011-01-21 08:26:30 51°13.526 2°42.687 234.5 14.6 236 11.3
2011-01-21 08:26:35 51°13.515 2°42.66 234.8 14.5 235 11.3
2011-01-21 08:26:40 51°13.503 2°42.633 235 14.6 236 11.3
2011-01-21 08:26:44 51°13.494 2°42.612 234.8 14.6 236 11.3
2011-01-21 08:26:50 51°13.481 2°42.581 235.8 14.5 235 11.3
2011-01-21 08:26:55 51°13.469 2°42.554 234.8 14.5 235 11.3
2011-01-21 08:27:00 51°13.458 2°42.527 234.2 14.6 235 11.2
2011-01-21 08:27:04 51°13.448 2°42.507 234.2 14.7 234 11.3
2011-01-21 08:27:10 51°13.434 2°42.475 233.7 14.7 235 11.4
2011-01-21 08:27:15 51°13.422 2°42.449 234.2 14.6 234 11.3
2011-01-21 08:27:20 51°13.41 2°42.423 233.1 14.7 235 11.1
2011-01-21 08:27:24 51°13.401 2°42.402 233.8 14.7 235 11.2
2011-01-21 08:27:30 51°13.387 2°42.369 234.5 14.5 235 11.3
2011-01-21 08:27:35 51°13.375 2°42.343 234.8 14.6 235 11.3
2011-01-21 08:27:40 51°13.364 2°42.316 234.3 14.7 235 11.3
2011-01-21 08:27:44 51°13.354 2°42.295 234.6 14.7 235 11.3
2011-01-21 08:27:50 51°13.341 2°42.263 235.2 14.7 235 11.2
2011-01-21 08:27:55 51°13.329 2°42.236 234.5 14.7 235 11.4
2011-01-21 08:28:00 51°13.317 2°42.21 234.9 14.6 236 11.2
2011-01-21 08:28:04 51°13.308 2°42.189 234.4 14.8 234 11.3
2011-01-21 08:28:10 51°13.294 2°42.156 234.9 14.6 237 11.1
2011-01-21 08:28:15 51°13.282 2°42.13 235.2 14.6 234 11.3
2011-01-21 08:28:20 51°13.271 2°42.103 234.5 14.7 236 11.3
2011-01-21 08:28:24 51°13.261 2°42.082 234.5 14.8 234 11.2
2011-01-21 08:28:30 51°13.247 2°42.05 234.3 14.8 235 11.4
2011-01-21 08:28:35 51°13.235 2°42.023 234.3 14.8 235 11.3
2011-01-21 08:28:40 51°13.223 2°41.997 234.5 14.7 234 11.4
2011-01-21 08:28:45 51°13.212 2°41.97 234.4 14.6 235 11.3
2011-01-21 08:28:50 51°13.2 2°41.943 234.2 14.8 234 11.2
2011-01-21 08:28:55 51°13.188 2°41.916 234.3 14.8 236 11.3
2011-01-21 08:29:00 51°13.176 2°41.89 235 14.8 235 11.3
2011-01-21 08:29:04 51°13.167 2°41.869 234.5 14.7 235 11.2
2011-01-21 08:29:10 51°13.153 2°41.837 234.4 14.7 234 11.3
2011-01-21 08:29:15 51°13.141 2°41.811 234.2 14.7 234 11.2
2011-01-21 08:29:20 51°13.128 2°41.785 232.8 14.8 232 11.4
2011-01-21 08:29:24 51°13.119 2°41.763 233.5 14.8 236 11.2
2011-01-21 08:29:30 51°13.104 2°41.731 233.9 14.8 233 11.3
2011-01-21 08:29:35 51°13.093 2°41.704 233.8 14.7 237 11.1
2011-01-21 08:29:40 51°13.081 2°41.678 235.2 14.8 234 11.3
2011-01-21 08:29:44 51°13.072 2°41.656 234.9 14.7 237 11.2
2011-01-21 08:29:50 51°13.058 2°41.623 235.6 14.8 235 11.2
2011-01-21 08:29:55 51°13.046 2°41.597 235.3 14.9 235 11.3
2011-01-21 08:30:00 51°13.034 2°41.571 235.2 14.7 235 11.3
2011-01-21 08:30:05 51°13.022 2°41.544 234.5 14.7 234 11.3
2011-01-21 08:30:10 51°13.01 2°41.518 233.4 14.8 233 11.3
2011-01-21 08:30:15 51°12.998 2°41.491 233.8 14.8 235 11.3
2011-01-21 08:30:20 51°12.986 2°41.465 233.8 14.7 234 11.2
2011-01-21 08:30:24 51°12.976 2°41.444 233.1 14.7 234 11.2
2011-01-21 08:30:30 51°12.962 2°41.412 233 14.9 235 11
2011-01-21 08:30:35 51°12.95 2°41.385 234.1 14.9 234 11.2
2011-01-21 08:30:40 51°12.938 2°41.358 234.2 14.9 235 11.2
2011-01-21 08:30:45 51°12.926 2°41.331 234.8 14.8 235 11.3
2011-01-21 08:30:50 51°12.915 2°41.304 235.5 14.8 237 11.1
2011-01-21 08:30:55 51°12.904 2°41.277 236.2 14.7 235 11.2
2011-01-21 08:31:00 51°12.892 2°41.25 235.6 14.8 235 11.3
2011-01-21 08:31:04 51°12.882 2°41.228 234.9 14.9 236 11.1
2011-01-21 08:31:10 51°12.869 2°41.196 235.7 14.7 235 11
2011-01-21 08:31:15 51°12.856 2°41.17 234.5 14.7 234 11
2011-01-21 08:31:20 51°12.845 2°41.143 234.5 14.7 236 11
2011-01-21 08:31:24 51°12.835 2°41.123 234.3 14.8 234 10.9
2011-01-21 08:31:30 51°12.82 2°41.091 233.7 14.8 234 11
2011-01-21 08:31:35 51°12.808 2°41.065 233.8 14.7 234 11
2011-01-21 08:31:40 51°12.797 2°41.038 233.9 14.6 234 11
2011-01-21 08:31:44 51°12.787 2°41.017 234.5 14.7 234 10.9
2011-01-21 08:31:50 51°12.773 2°40.985 233.8 14.9 235 10.9
2011-01-21 08:31:55 51°12.761 2°40.958 234.9 14.8 234 11
2011-01-21 08:32:00 51°12.75 2°40.932 234.9 14.7 235 11
2011-01-21 08:32:05 51°12.738 2°40.905 234.9 14.7 234 11
2011-01-21 08:32:09 51°12.729 2°40.884 235.2 14.6 236 10.7
2011-01-21 08:32:15 51°12.714 2°40.852 234.5 14.8 233 11
2011-01-21 08:32:20 51°12.702 2°40.825 234.4 14.8 236 11
2011-01-21 08:32:24 51°12.693 2°40.804 234.5 14.7 233 10.9
2011-01-21 08:32:30 51°12.678 2°40.773 234.2 14.6 235 10.7
2011-01-21 08:32:35 51°12.666 2°40.746 234 14.7 234 10.8
2011-01-21 08:32:40 51°12.655 2°40.72 233.8 14.7 235 10.8
2011-01-21 08:32:45 51°12.643 2°40.694 234.5 14.6 235 10.8
2011-01-21 08:32:50 51°12.631 2°40.667 234.1 14.8 234 10.5
2011-01-21 08:32:55 51°12.619 2°40.641 234.1 14.8 235 10
2011-01-21 08:33:00 51°12.607 2°40.615 234.5 14.6 234 10.7
2011-01-21 08:33:04 51°12.598 2°40.594 234.8 14.4 235 10.8
2011-01-21 08:33:10 51°12.584 2°40.563 234.4 14.6 234 10.8
2011-01-21 08:33:15 51°12.572 2°40.536 233.8 14.7 235 10.8
2011-01-21 08:33:20 51°12.56 2°40.51 234.2 14.7 233 10.9
2011-01-21 08:33:25 51°12.548 2°40.484 233.8 14.6 235 10.8
2011-01-21 08:33:30 51°12.536 2°40.458 233.8 14.5 233 10.8
2011-01-21 08:33:35 51°12.524 2°40.432 233.7 14.6 234 11
2011-01-21 08:33:40 51°12.512 2°40.406 233.3 14.8 233 11
2011-01-21 08:33:44 51°12.503 2°40.384 233.8 14.6 236 10.9
2011-01-21 08:33:50 51°12.488 2°40.354 234.1 14.4 232 10.3
2011-01-21 08:33:55 51°12.476 2°40.328 233.1 14.6 234 10.4
2011-01-21 08:34:00 51°12.464 2°40.302 233.6 14.7 234 10.7
2011-01-21 08:34:05 51°12.453 2°40.276 234.2 14.5 235 10.4
2011-01-21 08:34:09 51°12.443 2°40.255 234.5 14.4 234 10.8
2011-01-21 08:34:15 51°12.429 2°40.224 233.8 14.6 234 10.8
2011-01-21 08:34:20 51°12.417 2°40.197 233.5 14.7 234 10.8
2011-01-21 08:34:24 51°12.408 2°40.176 235.7 14.6 236 10.1
2011-01-21 08:34:30 51°12.395 2°40.144 235.7 14.5 235 10.1
2011-01-21 08:34:35 51°12.383 2°40.118 235.7 14.5 235 10.5
2011-01-21 08:34:40 51°12.372 2°40.092 235.1 14.6 234 10.6
2011-01-21 08:34:44 51°12.363 2°40.07 235.2 14.6 237 10.7
2011-01-21 08:34:50 51°12.348 2°40.039 235.2 14.5 234 10.6
2011-01-21 08:34:55 51°12.337 2°40.014 234.5 14.4 235 10
2011-01-21 08:35:00 51°12.325 2°39.987 234.5 14.5 234 9.7
2011-01-21 08:35:04 51°12.316 2°39.967 234.4 14.4 234 10.1
2011-01-21 08:35:10 51°12.301 2°39.936 233.9 14.4 234 10.4
2011-01-21 08:35:15 51°12.29 2°39.91 233.9 14.5 235 10.4
2011-01-21 08:35:20 51°12.278 2°39.884 234.2 14.6 234 10.4
2011-01-21 08:35:25 51°12.266 2°39.857 234.1 14.6 235 10.3
2011-01-21 08:35:30 51°12.255 2°39.831 234.5 14.5 235 10.4
2011-01-21 08:35:35 51°12.243 2°39.805 235 14.4 235 10.1
2011-01-21 08:35:40 51°12.231 2°39.779 234.4 14.5 235 10.3
2011-01-21 08:35:45 51°12.219 2°39.753 234.9 14.5 234 10
2011-01-21 08:35:50 51°12.208 2°39.727 233.8 14.6 235 10.2
2011-01-21 08:35:55 51°12.196 2°39.701 234.9 14.4 235 10
2011-01-21 08:36:00 51°12.184 2°39.675 234.4 14.4 233 9.8
2011-01-21 08:36:04 51°12.175 2°39.654 233.6 14.5 234 9.5
2011-01-21 08:36:10 51°12.161 2°39.623 234.2 14.5 235 9.8
2011-01-21 08:36:15 51°12.149 2°39.597 234.2 14.4 234 9.9
2011-01-21 08:36:20 51°12.138 2°39.571 234.3 14.4 235 9.8
2011-01-21 08:36:24 51°12.129 2°39.551 234.5 14.5 234 9.8
2011-01-21 08:36:30 51°12.114 2°39.519 234.1 14.6 234 10
2011-01-21 08:36:35 51°12.103 2°39.493 235.2 14.5 236 10
2011-01-21 08:36:40 51°12.092 2°39.467 235 14.4 235 9.8
2011-01-21 08:36:45 51°12.08 2°39.441 234.5 14.5 234 10
2011-01-21 08:36:50 51°12.069 2°39.414 235.2 14.5 237 10
2011-01-21 08:36:55 51°12.057 2°39.388 235.9 14.5 234 10
2011-01-21 08:37:00 51°12.046 2°39.361 235.7 14.5 237 9.5
2011-01-21 08:37:04 51°12.036 2°39.341 235.2 14.5 234 9.7
2011-01-21 08:37:10 51°12.023 2°39.309 234.2 14.5 235 9.9
2011-01-21 08:37:15 51°12.011 2°39.283 234.5 14.5 235 9.8
2011-01-21 08:37:20 51°12 2°39.257 235.2 14.3 235 9.8
2011-01-21 08:37:25 51°11.988 2°39.231 234.2 14.4 234 9.9
2011-01-21 08:37:30 51°11.976 2°39.205 234.1 14.6 234 10
2011-01-21 08:37:35 51°11.965 2°39.178 234.5 14.6 236 10.2
2011-01-21 08:37:40 51°11.953 2°39.152 234.8 14.7 235 10.1
2011-01-21 08:37:45 51°11.941 2°39.126 235.2 14.4 235 9.9
2011-01-21 08:37:50 51°11.93 2°39.1 234.9 14.3 234 9.6
2011-01-21 08:37:55 51°11.918 2°39.074 233.8 14.6 234 9.8
2011-01-21 08:38:00 51°11.907 2°39.047 235.2 14.5 236 9.6
2011-01-21 08:38:05 51°11.895 2°39.021 234.6 14.5 234 9.9
2011-01-21 08:38:10 51°11.883 2°38.995 234.7 14.4 236 9.9
2011-01-21 08:38:15 51°11.872 2°38.969 234.8 14.6 235 9.7
2011-01-21 08:38:20 51°11.86 2°38.943 234.4 14.6 235 9.5
2011-01-21 08:38:24 51°11.85 2°38.922 234.4 14.4 233 9.6
2011-01-21 08:38:30 51°11.836 2°38.892 232.8 14.4 232 9.7
2011-01-21 08:38:35 51°11.824 2°38.866 232 14.5 233 9.7
2011-01-21 08:38:40 51°11.811 2°38.842 231.3 14.6 231 9.7
2011-01-21 08:38:45 51°11.799 2°38.817 231.2 14.4 233 9.6
2011-01-21 08:38:50 51°11.787 2°38.792 231.6 14.3 232 9.6
2011-01-21 08:38:55 51°11.775 2°38.766 231.6 14.4 234 9.5
2011-01-21 08:39:00 51°11.763 2°38.74 233.1 14.4 234 9.4
2011-01-21 08:39:04 51°11.754 2°38.72 233.8 14.3 235 9.4
2011-01-21 08:39:10 51°11.74 2°38.689 234.3 14.4 235 9.3
2011-01-21 08:39:15 51°11.729 2°38.663 234.9 14.3 236 9.4
2011-01-21 08:39:20 51°11.718 2°38.636 235.9 14.3 236 9.4
2011-01-21 08:39:25 51°11.707 2°38.61 236.3 14.4 237 9.3
2011-01-21 08:39:30 51°11.696 2°38.583 236.5 14.4 235 9.4
2011-01-21 08:39:35 51°11.684 2°38.557 236.3 14.4 236 9.3
2011-01-21 08:39:40 51°11.673 2°38.532 235 14.3 234 9.2
2011-01-21 08:39:44 51°11.663 2°38.511 233.6 14.4 233 9.3
2011-01-21 08:39:50 51°11.649 2°38.48 233.1 14.4 235 9.3
2011-01-21 08:39:55 51°11.637 2°38.455 233.5 14.5 232 9.5
2011-01-21 08:40:00 51°11.626 2°38.429 233.1 14.3 236 9.1
2011-01-21 08:40:04 51°11.616 2°38.409 233.1 14.3 232 9.4
2011-01-21 08:40:10 51°11.602 2°38.378 233.1 14.5 234 9.5
2011-01-21 08:40:15 51°11.59 2°38.352 234.5 14.5 236 9.4
2011-01-21 08:40:20 51°11.579 2°38.326 235 14.3 234 9.4
2011-01-21 08:40:24 51°11.57 2°38.305 235 14.3 236 9.4
2011-01-21 08:40:30 51°11.556 2°38.274 235.4 14.3 236 9.5
2011-01-21 08:40:35 51°11.545 2°38.248 235.4 14.4 235 9.6
2011-01-21 08:40:40 51°11.534 2°38.222 235.8 14.3 237 9.4
2011-01-21 08:40:44 51°11.524 2°38.201 235.3 14.3 234 9.6
2011-01-21 08:40:50 51°11.511 2°38.169 234.5 14.4 236 9.5
2011-01-21 08:40:55 51°11.499 2°38.144 234.9 14.4 233 9.5
2011-01-21 08:41:00 51°11.487 2°38.118 233.8 14.3 234 9.6
2011-01-21 08:41:04 51°11.478 2°38.098 233.8 14.4 234 9.5
2011-01-21 08:41:10 51°11.464 2°38.067 233.8 14.5 233 9.7
2011-01-21 08:41:15 51°11.451 2°38.041 233.5 14.6 233 9.8
2011-01-21 08:41:20 51°11.44 2°38.015 233.1 14.7 235 10.1
2011-01-21 08:41:24 51°11.43 2°37.994 233.8 14.6 234 10.2
2011-01-21 08:41:30 51°11.416 2°37.963 234.2 14.6 234 10.4
2011-01-21 08:41:35 51°11.405 2°37.936 233.8 14.5 235 10.2
2011-01-21 08:41:40 51°11.393 2°37.91 234.8 14.6 234 10.6
2011-01-21 08:41:44 51°11.383 2°37.888 235 14.7 236 10.4
2011-01-21 08:41:50 51°11.369 2°37.857 235 14.6 235 10.7
2011-01-21 08:41:55 51°11.357 2°37.831 234.8 14.7 235 10.8
2011-01-21 08:42:00 51°11.346 2°37.805 234.6 14.5 235 10.9
2011-01-21 08:42:05 51°11.334 2°37.779 234.7 14.5 234 10.7
2011-01-21 08:42:10 51°11.323 2°37.752 234.2 14.6 236 10.8
2011-01-21 08:42:15 51°11.311 2°37.726 235.6 14.5 235 10.7
2011-01-21 08:42:20 51°11.299 2°37.699 234.4 14.6 235 10.7
2011-01-21 08:42:24 51°11.291 2°37.678 235.1 14.6 236 10.9
2011-01-21 08:42:30 51°11.277 2°37.647 235 14.5 235 10.8
2011-01-21 08:42:35 51°11.265 2°37.621 234.6 14.5 234 10.9
2011-01-21 08:42:40 51°11.252 2°37.595 234.2 14.4 234 10.8
2011-01-21 08:42:44 51°11.243 2°37.574 233.7 14.5 234 10.9
2011-01-21 08:42:50 51°11.229 2°37.543 233.6 14.5 234 10.8
2011-01-21 08:42:55 51°11.217 2°37.517 233.6 14.5 236 10.9
2011-01-21 08:43:00 51°11.206 2°37.491 234.9 14.4 235 11
2011-01-21 08:43:04 51°11.196 2°37.47 235 14.5 234 11
2011-01-21 08:43:10 51°11.183 2°37.439 233.9 14.5 235 11
2011-01-21 08:43:15 51°11.171 2°37.413 235 14.5 234 11
2011-01-21 08:43:20 51°11.159 2°37.387 234.1 14.5 235 11.2
2011-01-21 08:43:25 51°11.148 2°37.361 235.2 14.4 236 10.9
2011-01-21 08:43:30 51°11.136 2°37.335 234.5 14.5 232 11
2011-01-21 08:43:35 51°11.125 2°37.309 233.5 14.6 236 10.9
2011-01-21 08:43:40 51°11.113 2°37.283 234.5 14.5 234 11.1
2011-01-21 08:43:44 51°11.104 2°37.262 234.8 14.3 235 11.1
2011-01-21 08:43:50 51°11.089 2°37.232 234.3 14.4 233 11
2011-01-21 08:43:55 51°11.078 2°37.205 234 14.6 235 11.1
2011-01-21 08:44:00 51°11.066 2°37.179 235 14.6 235 11.2
2011-01-21 08:44:05 51°11.055 2°37.153 235.9 14.3 235 11.1
2011-01-21 08:44:10 51°11.044 2°37.127 234.8 14.4 234 11
2011-01-21 08:44:15 51°11.032 2°37.101 235 14.3 235 11
2011-01-21 08:44:20 51°11.021 2°37.075 234.3 14.4 234 11
2011-01-21 08:44:24 51°11.012 2°37.054 234.3 14.5 235 11
2011-01-21 08:44:30 51°10.998 2°37.023 234.7 14.4 234 11
2011-01-21 08:44:35 51°10.986 2°36.998 234.5 14.4 233 11
2011-01-21 08:44:40 51°10.974 2°36.972 233.6 14.5 234 10.9
2011-01-21 08:44:44 51°10.964 2°36.951 233.4 14.6 233 10.8
2011-01-21 08:44:50 51°10.95 2°36.92 234.3 14.5 236 10.7
2011-01-21 08:44:55 51°10.938 2°36.895 233.9 14.4 231 10.5
2011-01-21 08:45:00 51°10.925 2°36.871 230.7 14.5 231 10.7
2011-01-21 08:45:04 51°10.914 2°36.852 229.1 14.5 228 10.6
2011-01-21 08:45:10 51°10.897 2°36.825 225.8 14.4 225 10.6
2011-01-21 08:45:15 51°10.882 2°36.803 223.6 14.4 223 10.7
2011-01-21 08:45:20 51°10.867 2°36.783 220.7 14.4 221 10.2
2011-01-21 08:45:24 51°10.854 2°36.767 217.6 14.6 218 10.4
2011-01-21 08:45:30 51°10.835 2°36.743 216.9 14.6 219 10.1
2011-01-21 08:45:35 51°10.819 2°36.725 215.3 14.4 215 10.1
2011-01-21 08:45:40 51°10.802 2°36.706 212.6 14.3 216 10
2011-01-21 08:45:44 51°10.789 2°36.692 212 14.5 213 9.9
2011-01-21 08:45:50 51°10.769 2°36.67 211.4 14.6 215 10
2011-01-21 08:45:54 51°10.756 2°36.656 211.5 14.3 215 9.9
2011-01-21 08:46:00 51°10.736 2°36.635 211.7 14.3 214 9.7
2011-01-21 08:46:05 51°10.719 2°36.617 211.7 14.5 215 9.5
2011-01-21 08:46:10 51°10.702 2°36.599 212.4 14.6 214 9.7
2011-01-21 08:46:15 51°10.686 2°36.582 211.6 14.4 213 9.6
2011-01-21 08:46:20 51°10.668 2°36.566 209.9 14.4 211 9.3
2011-01-21 08:46:24 51°10.654 2°36.553 207.7 14.4 209 9.2
2011-01-21 08:46:30 51°10.632 2°36.539 204.2 14.3 204 9.2
2011-01-21 08:46:35 51°10.614 2°36.526 201.1 14.3 203 9.2
2011-01-21 08:46:40 51°10.596 2°36.516 198.7 14.2 200 8.9
2011-01-21 08:46:45 51°10.577 2°36.506 196.2 14.1 199 8.9
2011-01-21 08:46:50 51°10.558 2°36.496 194.9 14.3 198 8.6
2011-01-21 08:46:55 51°10.539 2°36.489 193.2 14.2 195 8.7
2011-01-21 08:47:00 51°10.521 2°36.482 191.3 14 194 8.5
2011-01-21 08:47:04 51°10.505 2°36.479 187.7 13.8 187 8.3
2011-01-21 08:47:10 51°10.483 2°36.477 182.6 13.8 184 8.4
2011-01-21 08:47:15 51°10.464 2°36.479 177.6 13.5 178 8.4
2011-01-21 08:47:20 51°10.445 2°36.482 172.8 13.4 175 8.5
2011-01-21 08:47:24 51°10.431 2°36.485 169 13.3 172 8.6
2011-01-21 08:47:29 51°10.413 2°36.491 165.3 13.2 168 8.7
2011-01-21 08:47:35 51°10.392 2°36.502 161 13.4 163 8.8
2011-01-21 08:47:40 51°10.374 2°36.512 156.7 13.6 160 9.5
2011-01-21 08:47:44 51°10.36 2°36.521 153.6 13.8 158 10.3
2011-01-21 08:47:50 51°10.339 2°36.536 150.9 13.9 156 11.5
2011-01-21 08:47:55 51°10.321 2°36.549 149.6 14 156 12.8
2011-01-21 08:48:00 51°10.303 2°36.563 149 14.1 155 13.3
2011-01-21 08:48:05 51°10.285 2°36.575 148.7 14 156 14.1
2011-01-21 08:48:10 51°10.268 2°36.587 149.3 13.9 156 14.8
2011-01-21 08:48:15 51°10.25 2°36.6 149.9 14 156 15.3
2011-01-21 08:48:20 51°10.232 2°36.612 149.6 13.9 156 16.1
2011-01-21 08:48:24 51°10.218 2°36.622 149.7 13.8 158 16.5
2011-01-21 08:48:30 51°10.197 2°36.636 150.9 13.7 157 16.6
2011-01-21 08:48:35 51°10.179 2°36.647 151.1 13.7 157 16.8
2011-01-21 08:48:40 51°10.162 2°36.659 150.9 13.6 157 17.1
2011-01-21 08:48:45 51°10.145 2°36.671 150.6 13.6 157 17.1
2011-01-21 08:48:50 51°10.127 2°36.683 150.3 13.6 157 17.2
2011-01-21 08:48:55 51°10.11 2°36.694 149.8 13.6 157 17.2
2011-01-21 08:49:00 51°10.092 2°36.705 150.4 13.6 159 17
2011-01-21 08:49:05 51°10.074 2°36.715 152.2 13.7 160 17.1
2011-01-21 08:49:10 51°10.056 2°36.725 153.1 13.8 160 17
2011-01-21 08:49:15 51°10.038 2°36.735 152.7 13.8 161 17
2011-01-21 08:49:20 51°10.02 2°36.745 153.3 13.5 161 16.8
2011-01-21 08:49:24 51°10.006 2°36.751 154.1 13.7 164 17.1
2011-01-21 08:49:30 51°9.984 2°36.762 154.1 13.8 163 17
2011-01-21 08:49:35 51°9.965 2°36.769 153.8 13.8 166 16.9
2011-01-21 08:49:40 51°9.946 2°36.777 155.4 13.8 166 16.8
2011-01-21 08:49:44 51°9.932 2°36.783 155.3 13.6 164 16.8
2011-01-21 08:49:50 51°9.911 2°36.794 153.2 13.4 163 16.6
2011-01-21 08:49:55 51°9.893 2°36.803 152.5 13.5 162 16.7
2011-01-21 08:50:00 51°9.875 2°36.813 151.8 13.6 161 16.8
2011-01-21 08:50:04 51°9.861 2°36.821 150.9 13.4 160 16.7
2011-01-21 08:50:10 51°9.84 2°36.833 150.7 13.3 160 16.7
2011-01-21 08:50:15 51°9.823 2°36.843 151 13.3 160 16.6
2011-01-21 08:50:20 51°9.805 2°36.853 150.7 13.3 160 16.4
2011-01-21 08:50:24 51°9.791 2°36.86 150.7 13.4 161 16.1
2011-01-21 08:50:30 51°9.77 2°36.872 151.5 13.5 160 15.9
2011-01-21 08:50:34 51°9.756 2°36.88 151.1 13.5 161 15.7
2011-01-21 08:50:40 51°9.735 2°36.891 151.2 13.4 162 15.3
2011-01-21 08:50:45 51°9.717 2°36.9 152 13.4 161 15.6
2011-01-21 08:50:50 51°9.699 2°36.909 152.5 13.5 162 15.5
2011-01-21 08:50:55 51°9.681 2°36.919 151.7 13.5 161 15.4
2011-01-21 08:51:00 51°9.663 2°36.927 151.9 13.5 163 15.3
2011-01-21 08:51:04 51°9.649 2°36.932 154.8 13.6 169 15.2
2011-01-21 08:51:10 51°9.626 2°36.937 159.1 13.5 171 15
2011-01-21 08:51:15 51°9.607 2°36.939 162.8 13.7 176 15.1
2011-01-21 08:51:20 51°9.588 2°36.938 167.3 13.9 180 14.9
2011-01-21 08:51:24 51°9.573 2°36.935 171.6 13.8 186 14.9
2011-01-21 08:51:30 51°9.55 2°36.927 178.2 13.9 193 14.8
2011-01-21 08:51:35 51°9.531 2°36.918 184.8 14.1 197 14.9
2011-01-21 08:51:40 51°9.514 2°36.904 191.5 14.1 204 14.9
2011-01-21 08:51:44 51°9.5 2°36.893 197.3 14.2 207 14.9
2011-01-21 08:51:50 51°9.479 2°36.874 199.7 14.4 209 14.9
2011-01-21 08:51:55 51°9.462 2°36.857 203.8 14.4 213 14.9
2011-01-21 08:52:00 51°9.446 2°36.838 207.4 14.4 215 14.7
2011-01-21 08:52:04 51°9.433 2°36.822 210.1 14.6 218 14.8
2011-01-21 08:52:09 51°9.417 2°36.802 214 14.6 222 14.7
2011-01-21 08:52:15 51°9.4 2°36.773 217.7 14.6 226 14.9
2011-01-21 08:52:20 51°9.387 2°36.749 221.6 14.6 229 14.6
2011-01-21 08:52:24 51°9.377 2°36.729 223.9 14.7 229 14.7
2011-01-21 08:52:30 51°9.362 2°36.699 226.7 14.7 232 14.8
2011-01-21 08:52:35 51°9.351 2°36.672 229.8 14.7 236 14.7
2011-01-21 08:52:40 51°9.341 2°36.644 233.4 14.7 238 14.7
2011-01-21 08:52:45 51°9.331 2°36.615 236.7 14.7 241 14.8
2011-01-21 08:52:50 51°9.322 2°36.586 239.3 14.7 243 14.5
2011-01-21 08:52:55 51°9.312 2°36.558 240.4 14.7 242 14.6
2011-01-21 08:53:00 51°9.304 2°36.528 241.9 14.8 245 14.6
2011-01-21 08:53:04 51°9.297 2°36.504 244 14.7 246 14.8
2011-01-21 08:53:10 51°9.288 2°36.468 244.9 14.7 247 14.7
2011-01-21 08:53:15 51°9.28 2°36.438 245.6 14.8 247 14.9
2011-01-21 08:53:20 51°9.273 2°36.407 246.9 14.9 250 14.6
2011-01-21 08:53:25 51°9.265 2°36.377 247.4 14.8 248 14.8
2011-01-21 08:53:30 51°9.257 2°36.347 247.6 14.8 248 14.8
2011-01-21 08:53:35 51°9.249 2°36.317 246.6 14.8 247 14.9
2011-01-21 08:53:40 51°9.24 2°36.287 245.9 14.8 246 14.9
2011-01-21 08:53:45 51°9.232 2°36.258 244.3 14.8 245 15
2011-01-21 08:53:50 51°9.223 2°36.228 243 14.8 244 15
2011-01-21 08:53:55 51°9.213 2°36.199 241.8 14.8 242 14.9
2011-01-21 08:54:00 51°9.203 2°36.171 240.1 14.9 241 15
2011-01-21 08:54:04 51°9.195 2°36.148 238.5 14.9 241 15
2011-01-21 08:54:10 51°9.182 2°36.114 237.6 14.8 239 14.9
2011-01-21 08:54:15 51°9.171 2°36.085 236.4 15 240 15
2011-01-21 08:54:20 51°9.161 2°36.057 236.2 15 239 15.2
2011-01-21 08:54:24 51°9.152 2°36.034 236.3 15 240 15
2011-01-21 08:54:30 51°9.14 2°36 236.5 15 240 15.1
2011-01-21 08:54:35 51°9.129 2°35.972 236.9 14.9 240 15
2011-01-21 08:54:40 51°9.119 2°35.943 236.9 15 239 15.2
2011-01-21 08:54:45 51°9.109 2°35.914 237 15.1 242 15
2011-01-21 08:54:50 51°9.098 2°35.886 237.4 15 239 15.1
2011-01-21 08:54:55 51°9.088 2°35.856 237.1 15.1 241 15.1
2011-01-21 08:55:00 51°9.077 2°35.828 237.1 15.1 239 15.1
2011-01-21 08:55:05 51°9.067 2°35.799 237.3 15 241 15.1
2011-01-21 08:55:10 51°9.057 2°35.771 237.1 15 240 14.9
2011-01-21 08:55:15 51°9.046 2°35.741 236.8 15.1 241 15.2
2011-01-21 08:55:20 51°9.036 2°35.712 238 15.1 241 15
2011-01-21 08:55:24 51°9.028 2°35.689 237.5 15 241 15.1
2011-01-21 08:55:30 51°9.016 2°35.655 237.8 15 241 15.2
2011-01-21 08:55:35 51°9.006 2°35.626 238.1 15 240 15.3
2011-01-21 08:55:40 51°8.995 2°35.597 237.6 15 241 15.1
2011-01-21 08:55:44 51°8.987 2°35.574 237.4 15.1 241 15.1
2011-01-21 08:55:50 51°8.975 2°35.539 237.7 15 240 15
2011-01-21 08:55:55 51°8.964 2°35.51 237.1 15.1 240 15.2
2011-01-21 08:56:00 51°8.954 2°35.481 237.2 15.1 241 15.2
2011-01-21 08:56:04 51°8.945 2°35.458 237 15 240 15
2011-01-21 08:56:10 51°8.933 2°35.424 236.6 15.1 240 15.2
2011-01-21 08:56:15 51°8.922 2°35.395 236.9 15.1 241 15.2
2011-01-21 08:56:20 51°8.912 2°35.366 237.4 15.1 240 15.1
2011-01-21 08:56:24 51°8.904 2°35.343 237.4 15.1 241 15.2
2011-01-21 08:56:29 51°8.894 2°35.313 238.4 15.2 241 15.2
2011-01-21 08:56:35 51°8.882 2°35.278 238.4 15.2 241 15.2
2011-01-21 08:56:40 51°8.872 2°35.249 238.2 15.1 241 15.1
2011-01-21 08:56:44 51°8.863 2°35.226 238.4 15.1 240 15.3
2011-01-21 08:56:49 51°8.853 2°35.196 238.1 15.1 242 15.3
2011-01-21 08:56:55 51°8.841 2°35.162 238 15.1 240 15.3
2011-01-21 08:57:00 51°8.831 2°35.132 237.4 15.1 241 15.2
2011-01-21 08:57:04 51°8.822 2°35.109 237.6 15.1 240 15.3
2011-01-21 08:57:10 51°8.81 2°35.074 237.9 15.1 241 15.3
2011-01-21 08:57:14 51°8.802 2°35.051 237.8 15.1 240 15.5
2011-01-21 08:57:20 51°8.79 2°35.016 238.1 15.2 241 15.4
2011-01-21 08:57:25 51°8.78 2°34.987 238.1 15.1 241 15.5
2011-01-21 08:57:30 51°8.769 2°34.958 238 15.1 240 15.4
2011-01-21 08:57:35 51°8.759 2°34.929 237.8 15.2 240 15.5
2011-01-21 08:57:40 51°8.748 2°34.9 237.8 15.1 241 15.5
2011-01-21 08:57:44 51°8.74 2°34.877 237.4 15.2 240 15.5
2011-01-21 08:57:50 51°8.727 2°34.841 237.4 15.3 241 15.5
2011-01-21 08:57:55 51°8.717 2°34.812 238.2 15.2 241 15.5
2011-01-21 08:58:00 51°8.707 2°34.782 238.2 15.2 241 15.5
2011-01-21 08:58:04 51°8.699 2°34.759 238.9 15.2 242 15.5
2011-01-21 08:58:10 51°8.687 2°34.724 239 15.2 241 15.6
2011-01-21 08:58:15 51°8.677 2°34.694 238.9 15.2 242 15.5
2011-01-21 08:58:20 51°8.666 2°34.665 238.6 15.3 241 15.6
2011-01-21 08:58:24 51°8.658 2°34.642 238.5 15.1 241 15.7
2011-01-21 08:58:30 51°8.646 2°34.607 238.3 15 240 15.6
2011-01-21 08:58:35 51°8.635 2°34.578 237.7 15.2 239 15.7
2011-01-21 08:58:40 51°8.625 2°34.549 237.3 15.2 241 15.6
2011-01-21 08:58:44 51°8.617 2°34.527 237.7 15 240 15.6
2011-01-21 08:58:49 51°8.606 2°34.497 237.6 15.2 241 15.6
2011-01-21 08:58:55 51°8.594 2°34.462 238.2 15.1 242 15.8
2011-01-21 08:59:00 51°8.584 2°34.433 239.2 15 241 15.7
2011-01-21 08:59:04 51°8.575 2°34.41 238.2 15.1 240 15.9
2011-01-21 08:59:10 51°8.564 2°34.375 238.2 15.1 242 15.7
2011-01-21 08:59:14 51°8.555 2°34.352 238.2 15.1 238 15.9
2011-01-21 08:59:20 51°8.542 2°34.317 237.5 15.1 241 16
2011-01-21 08:59:25 51°8.532 2°34.289 237.7 15.1 240 15.8
2011-01-21 08:59:30 51°8.521 2°34.26 237.3 15.2 240 15.9
2011-01-21 08:59:35 51°8.511 2°34.23 237.8 15.2 242 15.9
2011-01-21 08:59:40 51°8.501 2°34.201 238.9 15.1 241 15.8
2011-01-21 08:59:44 51°8.493 2°34.178 239 15.1 241 15.8
2011-01-21 08:59:50 51°8.481 2°34.143 238.8 15.1 241 15.9
2011-01-21 08:59:55 51°8.471 2°34.113 239.2 15.1 242 15.9
2011-01-21 09:00:00 51°8.461 2°34.084 239.2 15.2 241 15.9
2011-01-21 09:00:05 51°8.451 2°34.054 239.3 15.1 242 15.9
2011-01-21 09:00:10 51°8.441 2°34.025 239.9 15.1 242 15.9
2011-01-21 09:00:15 51°8.431 2°33.996 239.6 15.2 242 16
2011-01-21 09:00:20 51°8.421 2°33.966 239.8 15.1 242 15.8
2011-01-21 09:00:25 51°8.411 2°33.937 239.4 15.2 241 16
2011-01-21 09:00:30 51°8.401 2°33.908 238.9 15.3 242 16
2011-01-21 09:00:35 51°8.391 2°33.879 239.6 15.1 242 15.7
2011-01-21 09:00:40 51°8.381 2°33.849 239.6 15.1 242 15.8
2011-01-21 09:00:44 51°8.373 2°33.826 239.3 15.1 241 15.7
2011-01-21 09:00:50 51°8.361 2°33.791 239.1 15.1 241 15.9
2011-01-21 09:00:55 51°8.35 2°33.762 239 15.1 241 15.7
2011-01-21 09:01:00 51°8.34 2°33.733 238.6 15 241 15.7
2011-01-21 09:01:04 51°8.332 2°33.71 238.8 15 241 15.9
2011-01-21 09:01:10 51°8.32 2°33.675 238.7 15.1 241 15.9
2011-01-21 09:01:15 51°8.31 2°33.645 239.1 15.2 241 15.8
2011-01-21 09:01:20 51°8.3 2°33.616 239.6 15.1 242 15.8
2011-01-21 09:01:24 51°8.292 2°33.593 240.3 15.1 242 15.8
2011-01-21 09:01:30 51°8.281 2°33.557 240.3 15.1 243 15.8
2011-01-21 09:01:35 51°8.271 2°33.528 240.8 15 242 15.8
2011-01-21 09:01:40 51°8.261 2°33.499 240.1 15.1 242 15.8
2011-01-21 09:01:44 51°8.253 2°33.476 239.7 15 242 15.6
2011-01-21 09:01:50 51°8.241 2°33.441 238.9 15 240 15.7
2011-01-21 09:01:55 51°8.231 2°33.412 238.6 15 242 15.7
2011-01-21 09:02:00 51°8.22 2°33.383 239.1 15 240 15.6
2011-01-21 09:02:04 51°8.212 2°33.36 239 15.1 241 15.7
2011-01-21 09:02:10 51°8.2 2°33.325 238.6 15.2 241 15.7
2011-01-21 09:02:15 51°8.19 2°33.296 238.7 15.1 241 15.5
2011-01-21 09:02:20 51°8.179 2°33.267 238.6 15.1 240 15.6
2011-01-21 09:02:24 51°8.171 2°33.244 238.9 15.1 242 15.4
2011-01-21 09:02:30 51°8.159 2°33.209 239.1 15 241 15.5